Terminal Aerodrome Forecast
Issued by NWS

Home | Current Version | Previous Version | Text Only | Print | Product List | Glossary On
Versions: 1 2 3 4 5 6 7 8 9 10 11 12
425
FTPQ31 PGUM 172325
TAFKMJ
TAF
PKMJ 172325Z 1800/1824 09013KT P6SM VCSH SCT015 SCT050=

USA.gov is the U.S. government's official web portal to all federal, state and local government web resources and services.